Time;durP1;ratioP1;P1;durP2;ratioP2;P2;SDS_P1;SDS_P2;PMS_P1;PMS_P2;Temp;Humidity;BMP_temperature;BMP_pressure;BME280_temperature;BME280_humidity;BME280_pressure;Samples;Min_cycle;Max_cycle;Signal;HPM_P1;HPM_P2
2023/10/01 00:01:03;;;;;;;28.95;16.48;;;;;;;12.55;100.00;102129.41;4951979;28;20038;-77
2023/10/01 00:03:28;;;;;;;29.77;16.15;;;;;;;12.41;100.00;102135.84;4956871;28;20030;-77
2023/10/01 00:05:54;;;;;;;32.78;16.15;;;;;;;12.35;100.00;102129.84;4963935;28;20038;-78
2023/10/01 00:08:20;;;;;;;28.08;16.88;;;;;;;12.36;100.00;102129.72;4953921;28;20035;-77
2023/10/01 00:10:46;;;;;;;30.48;16.38;;;;;;;12.40;100.00;102124.94;4969408;28;20497;-77
2023/10/01 00:13:11;;;;;;;32.50;17.50;;;;;;;12.32;100.00;102120.81;4942342;28;20133;-77
2023/10/01 00:15:37;;;;;;;34.88;17.55;;;;;;;12.27;100.00;102116.63;4960299;28;20162;-77
2023/10/01 00:18:06;;;;;;;33.95;17.55;;;;;;;12.24;100.00;102123.19;4935022;28;20045;-76
2023/10/01 00:20:33;;;;;;;34.38;16.08;;;;;;;12.27;100.00;102113.88;4957202;28;20038;-77
2023/10/01 00:23:02;;;;;;;30.88;17.42;;;;;;;12.26;100.00;102126.72;4970109;28;20058;-77
2023/10/01 00:25:28;;;;;;;34.78;18.33;;;;;;;12.23;100.00;102131.53;4949649;28;20089;-77
2023/10/01 00:27:54;;;;;;;37.67;17.35;;;;;;;12.28;100.00;102133.00;4968704;28;21257;-76
2023/10/01 00:30:21;;;;;;;34.45;18.90;;;;;;;12.27;100.00;102127.63;4934561;28;20118;-77
2023/10/01 00:32:47;;;;;;;34.03;17.98;;;;;;;12.18;100.00;102137.31;4937642;28;20376;-77
2023/10/01 00:35:13;;;;;;;31.38;17.85;;;;;;;12.19;100.00;102138.22;4947967;28;20501;-77
2023/10/01 00:37:40;;;;;;;32.40;17.75;;;;;;;12.18;100.00;102131.84;4951004;28;20042;-77
2023/10/01 00:40:08;;;;;;;38.38;17.83;;;;;;;12.19;100.00;102138.22;4953412;28;20035;-78
2023/10/01 00:42:38;;;;;;;36.25;18.08;;;;;;;12.32;100.00;102136.44;4942567;28;20027;-78
2023/10/01 00:45:08;;;;;;;31.60;17.20;;;;;;;12.23;100.00;102140.69;4950125;28;20030;-77
2023/10/01 00:47:35;;;;;;;27.77;16.48;;;;;;;12.18;100.00;102131.84;4971962;28;20023;-76
2023/10/01 00:50:05;;;;;;;31.38;17.17;;;;;;;12.18;100.00;102122.72;4968363;28;20018;-78
2023/10/01 00:52:30;;;;;;;30.90;15.75;;;;;;;12.24;100.00;102127.81;4973454;28;20026;-77
2023/10/01 00:54:56;;;;;;;30.10;16.15;;;;;;;12.21;100.00;102128.88;4941401;28;20027;-78
2023/10/01 00:57:22;;;;;;;37.05;16.55;;;;;;;12.22;100.00;102121.56;4979363;28;20369;-78
2023/10/01 00:59:48;;;;;;;30.90;16.42;;;;;;;12.26;100.00;102125.84;4949825;28;20071;-77
2023/10/01 01:02:17;;;;;;;27.33;15.65;;;;;;;12.17;100.00;102113.63;4976922;28;20053;-77
2023/10/01 01:04:47;;;;;;;39.55;16.98;;;;;;;12.15;100.00;102110.09;4964836;28;20031;-77
2023/10/01 01:07:15;;;;;;;28.35;16.38;;;;;;;12.16;100.00;102100.84;4966755;28;20069;-77
2023/10/01 01:09:43;;;;;;;30.48;17.27;;;;;;;12.12;100.00;102105.66;4973315;28;20501;-77
2023/10/01 01:12:09;;;;;;;35.17;16.90;;;;;;;12.17;100.00;102104.47;4937523;28;20480;-78
2023/10/01 01:14:36;;;;;;;33.67;15.50;;;;;;;12.17;100.00;102094.38;4934460;28;20042;-78
2023/10/01 01:17:03;;;;;;;38.20;16.52;;;;;;;12.15;100.00;102107.34;4947903;28;20030;-78
2023/10/01 01:19:29;;;;;;;28.40;15.13;;;;;;;12.10;100.00;102099.41;4948482;28;20039;-78
2023/10/01 01:21:55;;;;;;;31.95;15.73;;;;;;;12.15;100.00;102104.59;4935371;28;20084;-78
2023/10/01 01:24:21;;;;;;;30.73;14.48;;;;;;;12.16;100.00;102098.09;4938142;28;20054;-78
2023/10/01 01:26:51;;;;;;;30.70;15.63;;;;;;;12.12;100.00;102091.94;4922754;28;20489;-78
2023/10/01 01:29:33;;;;;;;26.25;14.48;;;;;;;12.03;100.00;102087.03;4949430;28;20031;-79
2023/10/01 01:32:13;;;;;;;28.98;14.40;;;;;;;12.02;100.00;102089.88;4967073;28;20026;-79
2023/10/01 01:34:52;;;;;;;26.80;14.05;;;;;;;12.05;100.00;102078.72;4949635;28;20026;-79
2023/10/01 01:40:13;;;;;;;32.08;14.23;;;;;;;12.10;100.00;102084.78;4951417;28;20062;-79
2023/10/01 01:42:39;;;;;;;34.83;14.20;;;;;;;11.99;100.00;102081.88;4932547;28;20030;-76
2023/10/01 01:45:15;;;;;;;31.30;13.90;;;;;;;12.00;100.00;102089.13;4966656;28;20031;-77
2023/10/01 01:47:41;;;;;;;32.40;13.52;;;;;;;11.99;100.00;102084.63;4942212;28;20051;-76
2023/10/01 01:50:19;;;;;;;23.63;13.32;;;;;;;11.99;100.00;102076.41;4931770;28;20457;-77
2023/10/01 01:52:51;;;;;;;23.67;13.15;;;;;;;12.02;100.00;102074.31;4938307;28;20466;-77
2023/10/01 01:55:24;;;;;;;;;;;;;;;11.95;100.00;102062.88;4950511;28;20046;-76
2023/10/01 01:58:04;;;;;;;21.95;11.95;;;;;;;11.95;100.00;102067.44;4965709;28;19925;-77
2023/10/01 02:00:31;;;;;;;25.42;13.68;;;;;;;11.91;100.00;102072.28;4955466;28;20035;-77
2023/10/01 02:03:10;;;;;;;21.88;12.88;;;;;;;11.97;100.00;102064.59;4958977;28;20121;-76
2023/10/01 02:05:42;;;;;;;27.88;13.45;;;;;;;11.86;100.00;102066.16;4967890;28;20028;-76
2023/10/01 02:08:10;;;;;;;30.53;13.17;;;;;;;11.82;100.00;102060.97;4961030;28;20038;-76
2023/10/01 02:10:45;;;;;;;29.75;12.38;;;;;;;11.80;100.00;102062.94;4951722;28;20142;-77
2023/10/01 02:13:18;;;;;;;28.98;12.93;;;;;;;11.84;100.00;102065.41;4966366;28;20138;-76
2023/10/01 02:15:49;;;;;;;20.23;11.88;;;;;;;11.80;100.00;102054.72;4947389;28;20066;-77
2023/10/01 02:18:17;;;;;;;23.17;11.90;;;;;;;11.83;100.00;102054.50;4949970;28;20054;-76
2023/10/01 02:20:44;;;;;;;23.40;12.55;;;;;;;11.82;100.00;102061.84;4954334;28;20031;-76
2023/10/01 02:23:12;;;;;;;21.33;12.15;;;;;;;11.73;100.00;102065.22;4935820;28;20035;-77
2023/10/01 02:25:46;;;;;;;25.75;12.07;;;;;;;11.80;100.00;102063.81;4962783;28;20054;-77
2023/10/01 02:28:15;;;;;;;31.73;11.82;;;;;;;11.75;100.00;102061.38;4977474;28;20031;-77
2023/10/01 02:30:44;;;;;;;21.70;11.73;;;;;;;11.80;100.00;102060.19;4968678;28;20512;-77
2023/10/01 02:33:17;;;;;;;21.50;11.18;;;;;;;11.74;100.00;102050.50;4952794;28;20031;-78
2023/10/01 02:35:46;;;;;;;20.73;11.05;;;;;;;11.73;100.00;102046.88;4939424;29;20064;-76
2023/10/01 02:38:57;;;;;;;21.67;11.38;;;;;;;11.81;100.00;102042.75;4968505;28;20041;-77
2023/10/01 02:40:58;;;;;;;21.67;10.77;;;;;;;11.73;100.00;102052.34;4940907;28;20559;-77
2023/10/01 02:43:34;;;;;;;16.77;10.65;;;;;;;11.69;100.00;102041.69;4960254;28;20147;-77
2023/10/01 02:46:11;;;;;;;22.13;11.10;;;;;;;11.73;100.00;102049.63;4966796;28;20046;-76
2023/10/01 02:48:40;;;;;;;23.50;10.57;;;;;;;11.73;100.00;102043.25;4975648;28;20503;-77
2023/10/01 02:51:15;;;;;;;19.35;10.15;;;;;;;11.78;100.00;102052.94;4930802;28;20057;-77
2023/10/01 02:56:34;;;;;;;18.90;9.30;;;;;;;11.73;100.00;102051.50;4963508;28;20066;-77
2023/10/01 02:59:09;;;;;;;20.60;10.15;;;;;;;11.74;100.00;102053.22;4930262;29;20054;-76
2023/10/01 03:01:38;;;;;;;29.60;11.05;;;;;;;11.68;100.00;102056.41;4949664;28;20046;-77
2023/10/01 03:04:14;;;;;;;21.40;9.25;;;;;;;11.69;100.00;102052.66;4953241;28;20046;-76
2023/10/01 03:06:47;;;;;;;19.23;9.57;;;;;;;11.66;100.00;102048.25;4952398;29;20062;-76
2023/10/01 03:09:48;;;;;;;18.63;9.90;;;;;;;11.69;100.00;102055.41;4955775;28;20054;-76
2023/10/01 03:12:34;;;;;;;20.80;9.35;;;;;;;11.71;100.00;102059.81;4945525;29;20130;-77
2023/10/01 03:17:55;;;;;;;22.92;9.75;;;;;;;11.69;100.00;102061.78;4949898;28;20309;-77
2023/10/01 03:26:04;;;;;;;14.18;8.88;;;;;;;11.60;100.00;102051.41;4953490;28;20027;-77
2023/10/01 03:29:13;;;;;;;16.98;8.13;;;;;;;11.66;100.00;102053.75;4953172;29;20038;-91
2023/10/01 03:31:18;;;;;;;16.27;9.05;;;;;;;11.67;100.00;102057.38;4948839;29;20032;-92
2023/10/01 03:33:45;;;;;;;19.63;8.95;;;;;;;11.62;100.00;102045.81;4917785;29;20198;-92
2023/10/01 03:36:12;;;;;;;18.58;8.35;;;;;;;11.67;100.00;102049.13;4923067;29;20036;-92
2023/10/01 03:38:44;;;;;;;21.52;8.80;;;;;;;11.66;100.00;102053.75;4956780;28;20038;-91
2023/10/01 03:41:22;;;;;;;21.27;8.10;;;;;;;11.68;100.00;102051.78;4928962;29;20031;-91
2023/10/01 03:44:06;;;;;;;20.00;8.77;;;;;;;11.66;100.00;102044.63;4939812;29;20031;-91
2023/10/01 03:46:32;;;;;;;13.32;7.53;;;;;;;11.70;100.00;102044.31;4962359;28;20055;-92
2023/10/01 03:48:58;;;;;;;13.10;7.22;;;;;;;11.70;100.00;102048.94;4957685;29;20086;-90
2023/10/01 03:51:53;;;;;;;22.77;7.40;;;;;;;11.79;100.00;102042.88;4947785;29;20035;-91
2023/10/01 03:57:16;;;;;;;16.20;7.25;;;;;;;11.75;100.00;102053.13;4942291;28;20051;-92
2023/10/01 03:59:57;;;;;;;14.30;7.60;;;;;;;11.67;100.00;102050.00;4950775;29;20027;-92
2023/10/01 04:05:22;;;;;;;15.32;8.07;;;;;;;11.64;100.00;102039.25;4977541;28;20035;-92
2023/10/01 04:07:49;;;;;;;19.00;8.10;;;;;;;11.60;100.00;102037.69;4948357;29;20082;-95
2023/10/01 04:12:54;;;;;;;16.17;7.82;;;;;;;11.63;100.00;102044.84;4950893;28;20050;-91
2023/10/01 04:15:35;;;;;;;16.85;8.88;;;;;;;11.59;100.00;102045.03;4925539;29;20031;-91
2023/10/01 04:23:30;;;;;;;18.67;8.32;;;;;;;11.54;100.00;102046.28;4974282;28;20033;-92
2023/10/01 04:25:56;;;;;;;21.27;8.25;;;;;;;11.56;100.00;102052.59;4958408;28;20023;-93
2023/10/01 04:28:23;;;;;;;18.80;7.88;;;;;;;11.62;100.00;102049.41;4963170;28;20551;-92
2023/10/01 04:30:51;;;;;;;19.48;8.55;;;;;;;11.63;100.00;102051.19;4941960;28;20039;-92
2023/10/01 04:33:23;;;;;;;18.60;8.07;;;;;;;11.66;100.00;102052.84;4949122;28;20058;-93
2023/10/01 04:35:58;;;;;;;21.05;7.75;;;;;;;11.65;100.00;102053.84;4947238;28;20044;-92
2023/10/01 04:38:29;;;;;;;21.48;8.00;;;;;;;11.65;100.00;102064.81;4959876;28;20023;-93
2023/10/01 04:40:58;;;;;;;21.15;8.15;;;;;;;11.61;100.00;102047.69;4945519;28;20114;-92
2023/10/01 04:43:26;;;;;;;20.98;7.88;;;;;;;11.63;100.00;102051.19;4951793;28;20018;-92
2023/10/01 04:45:52;;;;;;;17.38;8.43;;;;;;;11.68;100.00;102049.03;4943652;28;20456;-91
2023/10/01 04:48:22;;;;;;;17.40;7.60;;;;;;;11.65;100.00;102053.84;4943804;28;20054;-93
2023/10/01 04:50:55;;;;;;;15.77;7.97;;;;;;;11.72;100.00;102055.19;4964618;28;20030;-92
2023/10/01 04:53:22;;;;;;;14.80;7.70;;;;;;;11.67;100.00;102047.25;4962014;28;20441;-93
2023/10/01 04:56:05;;;;;;;27.42;7.95;;;;;;;11.75;100.00;102046.78;4954556;28;20039;-92
2023/10/01 04:58:38;;;;;;;19.98;8.10;;;;;;;11.78;100.00;102041.09;4940955;29;20100;-91
2023/10/01 05:01:06;;;;;;;21.00;8.68;;;;;;;11.74;100.00;102047.75;4953878;28;20489;-92
2023/10/01 05:03:44;;;;;;;22.52;8.05;;;;;;;11.73;100.00;102048.75;4944992;29;20078;-92
2023/10/01 05:06:14;;;;;;;18.42;7.85;;;;;;;11.69;100.00;102049.91;4949759;28;20038;-92
2023/10/01 05:08:41;;;;;;;16.55;7.68;;;;;;;11.67;100.00;102050.00;4964401;28;20038;-93
2023/10/01 05:11:10;;;;;;;18.45;7.70;;;;;;;11.66;100.00;102045.53;4959847;28;20031;-92
2023/10/01 05:13:47;;;;;;;17.70;7.45;;;;;;;11.67;100.00;102046.38;4955719;28;20035;-92
2023/10/01 05:16:13;;;;;;;18.52;8.77;;;;;;;11.68;100.00;102043.56;4955425;29;20067;-94
2023/10/01 05:18:42;;;;;;;20.67;8.35;;;;;;;11.70;100.00;102033.34;4929395;29;20035;-93
2023/10/01 05:21:12;;;;;;;19.77;8.70;;;;;;;11.67;100.00;102035.41;4952849;28;20693;-93
2023/10/01 05:23:48;;;;;;;15.50;8.07;;;;;;;11.73;100.00;102044.13;4946508;29;20031;-92
2023/10/01 05:26:20;;;;;;;23.85;8.05;;;;;;;11.73;100.00;102046.00;4937000;29;20050;-91
2023/10/01 05:28:48;;;;;;;23.07;8.13;;;;;;;11.80;100.00;102049.22;4939978;29;20085;-92
2023/10/01 05:31:14;;;;;;;19.35;8.07;;;;;;;11.92;100.00;102040.19;4953695;29;20051;-92
2023/10/01 05:33:45;;;;;;;18.08;9.43;;;;;;;11.78;100.00;102044.72;4938766;28;20036;-91
2023/10/01 05:36:11;;;;;;;18.95;8.10;;;;;;;11.79;100.00;102048.34;4947399;29;20478;-92
2023/10/01 05:38:37;;;;;;;17.92;7.68;;;;;;;11.79;100.00;102053.84;4938428;29;20043;-92
2023/10/01 05:41:09;;;;;;;23.45;7.80;;;;;;;11.82;100.00;102055.47;4938989;29;20027;-92
2023/10/01 05:43:37;;;;;;;22.65;8.85;;;;;;;11.89;100.00;102057.75;4926113;28;20062;-92
2023/10/01 05:46:09;;;;;;;22.10;8.30;;;;;;;11.88;100.00;102066.94;4941258;29;20109;-92
2023/10/01 05:48:39;;;;;;;18.92;8.00;;;;;;;11.89;100.00;102067.84;4920063;29;20131;-76
2023/10/01 05:51:19;;;;;;;19.50;7.88;;;;;;;11.88;100.00;102071.56;4953783;28;20109;-76
2023/10/01 05:54:01;;;;;;;24.70;8.48;;;;;;;11.92;100.00;102067.66;4950112;28;20118;-77
2023/10/01 05:56:36;;;;;;;20.17;8.27;;;;;;;11.91;100.00;102068.63;4934717;29;20142;-76
2023/10/01 05:59:03;;;;;;;22.65;8.05;;;;;;;11.94;100.00;102079.44;4967947;28;20234;-76
2023/10/01 06:01:32;;;;;;;18.83;7.68;;;;;;;11.94;100.00;102077.56;4918458;28;20137;-77
2023/10/01 06:03:59;;;;;;;24.88;8.55;;;;;;;11.95;100.00;102071.09;4956880;28;20082;-77
2023/10/01 06:06:24;;;;;;;23.40;8.35;;;;;;;12.01;100.00;102068.94;4950311;28;20509;-77
2023/10/01 06:08:58;;;;;;;24.90;9.60;;;;;;;12.00;100.00;102073.53;4950776;28;20066;-76
2023/10/01 06:11:38;;;;;;;28.30;9.30;;;;;;;11.98;100.00;102063.63;4943592;28;20035;-76
2023/10/01 06:14:05;;;;;;;19.17;8.23;;;;;;;11.96;100.00;102061.00;4969565;28;20023;-76
2023/10/01 06:16:37;;;;;;;23.10;7.35;;;;;;;12.00;100.00;102059.78;4956511;28;20085;-75
2023/10/01 06:19:04;;;;;;;20.90;8.30;;;;;;;12.08;100.00;102067.53;4956437;28;20126;-76
2023/10/01 06:21:34;;;;;;;26.88;8.60;;;;;;;12.12;100.00;102058.13;4951546;28;20039;-76
2023/10/01 06:24:10;;;;;;;21.88;8.38;;;;;;;12.20;100.00;102066.72;4972657;28;20030;-76
2023/10/01 06:26:36;;;;;;;23.15;9.48;;;;;;;12.24;100.00;102067.41;4958719;28;20030;-75
2023/10/01 06:29:07;;;;;;;21.10;8.00;;;;;;;12.32;100.00;102054.03;4935488;28;20074;-76
2023/10/01 06:34:21;;;;;;;21.75;8.60;;;;;;;12.55;100.00;102076.34;4971328;28;20053;-76
2023/10/01 06:36:51;;;;;;;23.15;8.52;;;;;;;12.71;100.00;102065.16;4961031;28;20090;-76
2023/10/01 06:39:19;;;;;;;28.45;8.55;;;;;;;12.76;100.00;102069.38;4956864;28;20034;-76
2023/10/01 06:41:45;;;;;;;21.13;8.15;;;;;;;12.84;100.00;102064.22;4952943;28;20038;-76
2023/10/01 06:44:14;;;;;;;19.73;8.43;;;;;;;12.95;100.00;102057.06;4940259;28;20035;-76
2023/10/01 06:46:40;;;;;;;23.88;8.10;;;;;;;12.91;100.00;102061.03;4947037;28;20034;-76
2023/10/01 06:49:08;;;;;;;20.98;8.23;;;;;;;13.06;100.00;102066.31;4964676;28;20027;-76
2023/10/01 06:51:43;;;;;;;21.63;8.15;;;;;;;13.14;100.00;102068.53;4955410;28;20038;-76
2023/10/01 06:54:12;;;;;;;25.50;8.02;;;;;;;13.41;100.00;102053.84;4958477;28;20034;-77
2023/10/01 06:56:44;;;;;;;23.38;9.25;;;;;;;13.40;100.00;102052.09;4952060;28;20093;-87
2023/10/01 06:59:17;;;;;;;23.23;8.65;;;;;;;13.55;100.00;102058.38;4958298;28;20059;-88
2023/10/01 07:01:47;;;;;;;21.92;8.38;;;;;;;13.57;100.00;102064.63;4952612;28;20063;-89
2023/10/01 07:04:23;;;;;;;22.10;8.48;;;;;;;13.63;100.00;102055.06;4956248;28;20041;-87
2023/10/01 07:06:53;;;;;;;29.25;8.77;;;;;;;13.73;100.00;102040.50;4960893;28;20073;-89
2023/10/01 07:09:32;;;;;;;21.40;8.90;;;;;;;13.71;100.00;102050.75;4961349;28;20050;-91
2023/10/01 07:11:59;;;;;;;20.75;9.20;;;;;;;13.84;100.00;102047.06;4956073;28;20097;-91
2023/10/01 07:14:31;;;;;;;23.38;8.90;;;;;;;14.02;100.00;102051.25;4923857;28;20493;-90
2023/10/01 07:16:57;;;;;;;29.40;9.73;;;;;;;14.29;100.00;102042.75;4926356;29;20121;-92
2023/10/01 07:19:23;;;;;;;19.20;7.95;;;;;;;14.30;100.00;102055.53;4941708;29;20309;-88
2023/10/01 07:21:56;;;;;;;22.48;8.30;;;;;;;14.43;100.00;102052.75;4923329;28;20043;-90
2023/10/01 07:24:23;;;;;;;;;;;;;;;14.36;100.00;102054.19;4962785;28;20030;-89
2023/10/01 07:26:50;;;;;;;22.15;8.05;;;;;;;14.52;100.00;102053.91;4936498;29;19919;-88
2023/10/01 07:29:16;;;;;;;24.58;9.13;;;;;;;14.54;100.00;102060.16;4955036;28;20125;-91
2023/10/01 07:31:43;;;;;;;22.85;8.55;;;;;;;14.65;100.00;102056.63;4944083;28;20046;-91
2023/10/01 07:34:16;;;;;;;19.83;7.72;;;;;;;14.87;100.00;102065.00;4945328;28;20041;-91
2023/10/01 07:36:42;;;;;;;23.25;8.50;;;;;;;14.85;100.00;102066.97;4946994;28;20030;-94
2023/10/01 07:39:09;;;;;;;23.63;8.48;;;;;;;14.90;100.00;102072.13;4945235;28;20042;-95
2023/10/01 07:41:39;;;;;;;21.67;8.98;;;;;;;14.92;100.00;102069.25;4931694;28;20027;-87
2023/10/01 07:44:11;;;;;;;18.73;9.05;;;;;;;15.31;100.00;102069.88;4929758;28;20425;-93
2023/10/01 07:46:37;;;;;;;24.67;8.23;;;;;;;15.38;100.00;102072.03;4937657;28;20034;-85
2023/10/01 07:49:09;;;;;;;23.77;8.20;;;;;;;15.62;100.00;102079.31;4951436;28;20034;-89
2023/10/01 07:51:38;;;;;;;21.55;8.55;;;;;;;15.82;100.00;102080.47;4952917;28;20042;-89
2023/10/01 07:54:11;;;;;;;21.80;8.85;;;;;;;16.14;100.00;102079.72;4942585;28;20030;-87
2023/10/01 07:56:56;;;;;;;23.08;8.88;;;;;;;16.34;100.00;102076.16;4960119;28;20054;-91
2023/10/01 07:59:33;;;;;;;21.48;8.43;;;;;;;16.41;100.00;102078.41;4957666;28;20050;-92
2023/10/01 08:04:57;;;;;;;21.90;7.70;;;;;;;16.30;100.00;102082.09;4964767;28;20038;-89
2023/10/01 08:07:30;;;;;;;24.02;8.80;;;;;;;17.02;100.00;102086.13;4943794;28;20041;-77
2023/10/01 08:10:00;;;;;;;19.10;7.30;;;;;;;17.43;100.00;102085.28;4964511;28;20038;-77
2023/10/01 08:12:30;;;;;;;26.30;8.73;;;;;;;16.94;100.00;102088.69;4970530;28;20035;-77
2023/10/01 08:17:43;;;;;;;22.40;7.82;;;;;;;17.88;100.00;102080.44;4954070;28;20142;-77
2023/10/01 08:20:16;;;;;;;16.60;7.75;;;;;;;17.77;100.00;102075.81;4951646;28;20163;-77
2023/10/01 08:23:12;;;;;;;21.10;8.48;;;;;;;18.23;100.00;102082.72;4966376;28;20521;-77
2023/10/01 08:25:32;;;;;;;23.00;8.02;;;;;;;17.98;100.00;102070.25;4940964;28;20068;-77
2023/10/01 08:30:43;;;;;;;20.33;8.25;;;;;;;18.81;100.00;102072.78;4968575;28;20119;-76
2023/10/01 08:33:32;;;;;;;22.95;8.52;;;;;;;18.53;100.00;102065.13;4950532;28;20035;-76
2023/10/01 08:36:14;;;;;;;22.05;7.22;;;;;;;18.94;100.00;102072.47;4964925;28;20035;-77
2023/10/01 08:39:19;;;;;;;23.03;8.30;;;;;;;19.26;100.00;102081.38;4953778;28;20034;-77
2023/10/01 08:41:50;;;;;;;17.67;7.32;;;;;;;19.29;100.00;102082.97;4965697;28;20087;-77
2023/10/01 08:44:20;;;;;;;22.60;8.32;;;;;;;19.38;100.00;102086.75;4967353;28;20027;-77
2023/10/01 08:46:45;;;;;;;22.48;8.35;;;;;;;19.29;100.00;102094.97;4948627;28;20058;-77
2023/10/01 08:49:23;;;;;;;22.45;8.48;;;;;;;19.85;100.00;102083.16;4932783;28;20089;-77
2023/10/01 08:51:54;;;;;;;21.75;7.88;;;;;;;19.86;100.00;102083.00;4950968;28;20035;-77
2023/10/01 08:54:24;;;;;;;22.63;8.40;;;;;;;19.46;100.00;102087.78;4964266;28;20038;-77
2023/10/01 08:56:52;;;;;;;22.13;7.82;;;;;;;19.92;100.00;102079.63;4970858;28;20114;-77
2023/10/01 08:59:25;;;;;;;35.75;8.48;;;;;;;19.78;100.00;102083.75;4951108;28;20063;-77
2023/10/01 09:01:52;;;;;;;22.40;8.68;;;;;;;20.00;100.00;102084.41;4967772;28;20492;-77
2023/10/01 09:04:29;;;;;;;26.55;8.40;;;;;;;19.75;100.00;102086.84;4933187;28;20035;-78
2023/10/01 09:07:04;;;;;;;23.02;8.55;;;;;;;19.87;100.00;102084.75;4949609;28;20026;-77
2023/10/01 09:09:51;;;;;;;25.85;8.93;;;;;;;20.20;100.00;102080.50;4932874;28;20031;-77
2023/10/01 09:12:18;;;;;;;25.83;8.60;;;;;;;20.19;100.00;102075.97;4963868;28;20030;-78
2023/10/01 09:14:46;;;;;;;23.80;8.77;;;;;;;20.75;100.00;102074.00;4952751;28;20039;-77
2023/10/01 09:17:27;;;;;;;22.67;8.52;;;;;;;21.28;100.00;102077.78;4963683;28;20026;-77
2023/10/01 09:19:53;;;;;;;27.08;8.52;;;;;;;20.87;100.00;102074.66;4949940;28;20031;-77
2023/10/01 09:22:35;;;;;;;27.35;8.77;;;;;;;20.52;100.00;102079.13;4968092;28;20089;-77
2023/10/01 09:25:16;;;;;;;24.83;8.38;;;;;;;20.85;100.00;102075.84;4953872;28;20809;-77
2023/10/01 09:28:37;;;;;;;20.40;8.38;;;;;;;21.27;100.00;102070.47;4972348;28;20043;-77
2023/10/01 09:30:55;;;;;;;20.63;8.55;;;;;;;21.28;100.00;102076.91;4956645;28;20034;-77
2023/10/01 09:33:25;;;;;;;24.35;8.40;;;;;;;21.09;100.00;102072.41;4966907;28;20090;-77
2023/10/01 09:35:57;;;;;;;25.02;8.30;;;;;;;20.86;100.00;102069.25;4954792;28;20044;-77
2023/10/01 09:38:27;;;;;;;25.45;8.35;;;;;;;20.36;100.00;102065.03;4938688;28;20062;-76
2023/10/01 09:40:55;;;;;;;20.58;8.43;;;;;;;20.23;100.00;102070.94;4968560;28;20039;-77
2023/10/01 09:43:29;;;;;;;24.70;8.45;;;;;;;20.62;100.00;102069.84;4954424;28;20035;-77
2023/10/01 09:46:00;;;;;;;25.35;8.60;;;;;;;20.71;100.00;102068.91;4961631;28;20031;-76
2023/10/01 09:48:31;;;;;;;24.58;8.73;;;;;;;20.53;100.00;102054.97;4964478;28;20054;-78
2023/10/01 09:51:08;;;;;;;28.77;8.95;;;;;;;21.29;100.00;102048.88;4967210;28;20026;-77
2023/10/01 09:53:47;;;;;;;27.42;8.15;;;;;;;21.09;100.00;102047.34;4941070;28;20416;-77
2023/10/01 09:56:22;;;;;;;22.50;7.43;;;;;;;21.19;100.00;102050.91;4961593;28;20389;-77
2023/10/01 09:58:48;;;;;;;24.40;8.32;;;;;;;21.25;100.00;102054.94;4952721;28;20043;-77
2023/10/01 10:01:17;;;;;;;25.05;9.05;;;;;;;21.77;100.00;102059.66;4953608;28;20066;-77
2023/10/01 10:03:44;;;;;;;23.90;8.32;;;;;;;21.66;100.00;102047.78;4970007;28;20031;-76
2023/10/01 10:06:10;;;;;;;22.73;8.07;;;;;;;21.40;100.00;102049.66;4969407;28;20035;-77
2023/10/01 10:08:38;;;;;;;23.83;8.18;;;;;;;21.35;100.00;102049.25;4971017;28;20484;-76
2023/10/01 10:11:24;;;;;;;22.55;8.50;;;;;;;21.17;100.00;102052.09;4958119;28;20041;-76
2023/10/01 10:13:50;;;;;;;25.65;9.20;;;;;;;21.40;100.00;102056.09;4961811;28;20084;-76
2023/10/01 10:16:34;;;;;;;27.90;8.48;;;;;;;22.00;100.00;102052.44;4955871;28;20031;-76
2023/10/01 10:19:20;;;;;;;23.45;8.23;;;;;;;22.39;100.00;102060.31;4973025;28;20035;-77
2023/10/01 10:24:36;;;;;;;26.45;8.70;;;;;;;22.37;100.00;102044.78;4972417;28;20075;-77
2023/10/01 10:27:09;;;;;;;25.73;9.25;;;;;;;22.91;100.00;102050.81;4970240;28;20109;-93
2023/10/01 10:29:57;;;;;;;24.67;9.25;;;;;;;23.17;100.00;102047.00;4955171;28;20034;-90
2023/10/01 10:32:30;;;;;;;25.63;8.82;;;;;;;22.70;100.00;102051.31;4975029;28;20524;-87
2023/10/01 10:35:05;;;;;;;20.92;8.75;;;;;;;22.83;100.00;102045.22;4968023;28;20065;-88
2023/10/01 10:37:38;;;;;;;22.80;8.52;;;;;;;22.86;100.00;102044.88;4955647;28;20027;-89
2023/10/01 10:40:13;;;;;;;22.27;7.85;;;;;;;22.86;100.00;102042.06;4974825;28;20042;-90
2023/10/01 10:42:46;;;;;;;26.45;8.95;;;;;;;23.00;100.00;102039.63;4961199;28;20113;-89
2023/10/01 10:45:20;;;;;;;26.38;8.98;;;;;;;22.97;100.00;102039.97;4955010;28;20031;-88
2023/10/01 10:47:58;;;;;;;22.48;8.63;;;;;;;23.16;100.00;102036.00;4955473;28;20046;-90
2023/10/01 10:50:39;;;;;;;27.20;9.20;;;;;;;23.01;100.00;102028.28;4954791;28;20481;-89
2023/10/01 10:53:15;;;;;;;23.13;9.35;;;;;;;22.98;100.00;102023.03;4949023;28;20035;-89
2023/10/01 10:56:06;;;;;;;22.25;8.45;;;;;;;23.07;100.00;102027.63;4955763;28;20030;-90
2023/10/01 10:58:37;;;;;;;23.52;7.85;;;;;;;23.17;100.00;102021.84;4950142;28;20059;-92
2023/10/01 11:01:15;;;;;;;19.50;8.00;;;;;;;23.15;100.00;102017.47;4950867;28;20034;-92
2023/10/01 11:03:44;;;;;;;19.02;7.45;;;;;;;23.00;100.00;102023.72;4957981;29;20039;-90
2023/10/01 11:06:23;;;;;;;24.05;8.63;;;;;;;22.88;100.00;102022.34;4954853;28;20035;-90
2023/10/01 11:08:50;;;;;;;24.35;8.18;;;;;;;23.11;100.00;102028.13;4950616;28;20240;-87
2023/10/01 11:11:30;;;;;;;36.10;8.85;;;;;;;23.26;100.00;102025.50;4950875;28;20035;-91
2023/10/01 11:14:03;;;;;;;27.48;8.48;;;;;;;23.33;100.00;102026.53;4950296;29;20059;-91
2023/10/01 11:16:38;;;;;;;25.10;8.27;;;;;;;23.24;100.00;102025.69;4954178;28;20035;-90
2023/10/01 11:19:14;;;;;;;23.40;8.15;;;;;;;23.34;100.00;102025.50;4940071;28;20050;-90
2023/10/01 11:21:58;;;;;;;21.23;8.23;;;;;;;23.34;100.00;102033.00;4941228;29;20035;-93
2023/10/01 11:24:30;;;;;;;18.70;7.47;;;;;;;23.21;100.00;102025.16;4941559;29;20070;-91
2023/10/01 11:27:11;;;;;;;27.00;8.80;;;;;;;23.45;100.00;102018.66;4942266;29;20039;-91
2023/10/01 11:29:39;;;;;;;21.45;7.93;;;;;;;23.62;100.00;102014.75;4952289;28;20071;-91
2023/10/01 11:32:16;;;;;;;26.17;8.98;;;;;;;23.24;100.00;102011.69;4939250;28;20035;-92
2023/10/01 11:34:43;;;;;;;21.48;7.90;;;;;;;23.66;100.00;102009.66;4960537;28;20135;-91
2023/10/01 11:37:18;;;;;;;21.70;8.10;;;;;;;23.35;100.00;102002.09;4954921;28;20074;-89
2023/10/01 11:39:52;;;;;;;25.00;8.15;;;;;;;23.21;100.00;101997.22;4959186;29;20565;-93
2023/10/01 11:42:38;;;;;;;19.83;7.57;;;;;;;23.25;100.00;101987.41;4960166;28;20553;-92
2023/10/01 11:45:30;;;;;;;20.23;7.97;;;;;;;23.23;100.00;101984.78;4947880;28;20078;-93
2023/10/01 11:48:05;;;;;;;25.00;9.07;;;;;;;23.36;100.00;101966.63;4960436;28;20046;-91
2023/10/01 11:50:31;;;;;;;23.95;8.35;;;;;;;23.41;100.00;101979.00;4943185;28;20038;-92
2023/10/01 11:53:06;;;;;;;22.52;9.10;;;;;;;23.39;100.00;101974.66;4951967;29;20034;-90
2023/10/01 11:55:33;;;;;;;21.55;8.35;;;;;;;23.50;100.00;101974.28;4959064;28;20090;-91
2023/10/01 11:58:03;;;;;;;24.85;8.55;;;;;;;23.45;100.00;101969.22;4956751;28;20067;-91
2023/10/01 12:03:13;;;;;;;21.38;8.57;;;;;;;23.61;100.00;101961.81;4977091;28;20050;-93
2023/10/01 12:05:41;;;;;;;22.13;8.20;;;;;;;23.72;100.00;101966.13;4978677;28;20031;-93
2023/10/01 12:08:10;;;;;;;21.40;8.43;;;;;;;23.47;100.00;101964.31;4958859;28;20042;-91
2023/10/01 12:10:36;;;;;;;20.40;7.50;;;;;;;23.60;100.00;101971.25;4976536;28;20054;-93
2023/10/01 12:13:02;;;;;;;24.70;9.10;;;;;;;23.40;100.00;101970.78;4965983;28;20035;-95